sensor_id;sensor_type;location;lat;lon;timestamp;P1;durP1;ratioP1;P2;durP2;ratioP2
81306;SDS011;70775;50.846;3.224;2023-07-13T00:01:43;10.20;;;3.00;;
81306;SDS011;70775;50.846;3.224;2023-07-13T00:04:08;9.68;;;3.20;;
81306;SDS011;70775;50.846;3.224;2023-07-13T00:06:34;10.93;;;4.45;;
81306;SDS011;70775;50.846;3.224;2023-07-13T00:09:00;12.30;;;3.80;;
81306;SDS011;70775;50.846;3.224;2023-07-13T00:11:26;11.15;;;3.40;;
81306;SDS011;70775;50.846;3.224;2023-07-13T00:13:52;10.40;;;3.47;;
81306;SDS011;70775;50.846;3.224;2023-07-13T00:16:18;17.05;;;3.45;;
81306;SDS011;70775;50.846;3.224;2023-07-13T00:18:45;12.10;;;3.78;;
81306;SDS011;70775;50.846;3.224;2023-07-13T00:21:11;9.30;;;3.78;;
81306;SDS011;70775;50.846;3.224;2023-07-13T00:23:38;15.00;;;4.18;;
81306;SDS011;70775;50.846;3.224;2023-07-13T00:26:06;11.15;;;3.40;;
81306;SDS011;70775;50.846;3.224;2023-07-13T00:28:37;16.00;;;4.25;;
81306;SDS011;70775;50.846;3.224;2023-07-13T00:31:03;12.48;;;3.72;;
81306;SDS011;70775;50.846;3.224;2023-07-13T00:33:28;12.63;;;3.78;;
81306;SDS011;70775;50.846;3.224;2023-07-13T00:35:54;15.38;;;4.10;;
81306;SDS011;70775;50.846;3.224;2023-07-13T00:38:21;14.20;;;3.95;;
81306;SDS011;70775;50.846;3.224;2023-07-13T00:40:48;8.93;;;3.20;;
81306;SDS011;70775;50.846;3.224;2023-07-13T00:43:15;14.20;;;4.53;;
81306;SDS011;70775;50.846;3.224;2023-07-13T00:48:09;13.18;;;3.78;;
81306;SDS011;70775;50.846;3.224;2023-07-13T00:50:38;13.65;;;4.30;;
81306;SDS011;70775;50.846;3.224;2023-07-13T00:53:05;15.07;;;4.63;;
81306;SDS011;70775;50.846;3.224;2023-07-13T00:55:31;13.45;;;3.88;;
81306;SDS011;70775;50.846;3.224;2023-07-13T00:57:56;11.73;;;4.05;;
81306;SDS011;70775;50.846;3.224;2023-07-13T01:00:23;11.30;;;4.10;;
81306;SDS011;70775;50.846;3.224;2023-07-13T01:02:51;16.65;;;4.03;;
81306;SDS011;70775;50.846;3.224;2023-07-13T01:05:18;12.93;;;3.72;;
81306;SDS011;70775;50.846;3.224;2023-07-13T01:07:45;14.05;;;3.63;;
81306;SDS011;70775;50.846;3.224;2023-07-13T01:10:13;13.18;;;3.72;;
81306;SDS011;70775;50.846;3.224;2023-07-13T01:12:39;18.75;;;3.90;;
81306;SDS011;70775;50.846;3.224;2023-07-13T01:15:05;12.68;;;3.40;;
81306;SDS011;70775;50.846;3.224;2023-07-13T01:17:51;17.25;;;4.03;;
81306;SDS011;70775;50.846;3.224;2023-07-13T01:20:17;9.07;;;3.15;;
81306;SDS011;70775;50.846;3.224;2023-07-13T01:22:43;15.20;;;3.60;;
81306;SDS011;70775;50.846;3.224;2023-07-13T01:25:08;16.58;;;3.90;;
81306;SDS011;70775;50.846;3.224;2023-07-13T01:27:34;14.23;;;4.45;;
81306;SDS011;70775;50.846;3.224;2023-07-13T01:30:00;11.32;;;3.45;;
81306;SDS011;70775;50.846;3.224;2023-07-13T01:32:29;17.52;;;4.60;;
81306;SDS011;70775;50.846;3.224;2023-07-13T01:34:57;12.63;;;3.67;;
81306;SDS011;70775;50.846;3.224;2023-07-13T01:37:23;11.23;;;4.55;;
81306;SDS011;70775;50.846;3.224;2023-07-13T01:39:50;16.30;;;4.03;;
81306;SDS011;70775;50.846;3.224;2023-07-13T01:42:16;10.75;;;3.53;;
81306;SDS011;70775;50.846;3.224;2023-07-13T01:44:42;15.25;;;4.00;;
81306;SDS011;70775;50.846;3.224;2023-07-13T01:47:08;19.23;;;6.07;;
81306;SDS011;70775;50.846;3.224;2023-07-13T01:49:34;11.98;;;3.60;;
81306;SDS011;70775;50.846;3.224;2023-07-13T01:52:00;14.27;;;4.20;;
81306;SDS011;70775;50.846;3.224;2023-07-13T01:54:25;17.13;;;4.28;;
81306;SDS011;70775;50.846;3.224;2023-07-13T01:56:51;18.25;;;4.82;;
81306;SDS011;70775;50.846;3.224;2023-07-13T01:59:17;12.60;;;3.88;;
81306;SDS011;70775;50.846;3.224;2023-07-13T02:01:42;12.10;;;4.22;;
81306;SDS011;70775;50.846;3.224;2023-07-13T02:04:08;17.05;;;4.45;;
81306;SDS011;70775;50.846;3.224;2023-07-13T02:06:33;13.02;;;3.60;;
81306;SDS011;70775;50.846;3.224;2023-07-13T02:08:59;12.75;;;3.80;;
81306;SDS011;70775;50.846;3.224;2023-07-13T02:11:25;10.32;;;3.55;;
81306;SDS011;70775;50.846;3.224;2023-07-13T02:13:57;14.10;;;4.43;;
81306;SDS011;70775;50.846;3.224;2023-07-13T02:16:24;12.07;;;3.60;;
81306;SDS011;70775;50.846;3.224;2023-07-13T02:18:49;12.35;;;4.65;;
81306;SDS011;70775;50.846;3.224;2023-07-13T02:21:17;13.52;;;3.60;;
81306;SDS011;70775;50.846;3.224;2023-07-13T02:23:43;15.35;;;4.18;;
81306;SDS011;70775;50.846;3.224;2023-07-13T02:26:08;13.85;;;3.63;;
81306;SDS011;70775;50.846;3.224;2023-07-13T02:28:34;12.93;;;3.85;;
81306;SDS011;70775;50.846;3.224;2023-07-13T02:31:11;12.80;;;4.25;;
81306;SDS011;70775;50.846;3.224;2023-07-13T02:33:38;17.88;;;4.68;;
81306;SDS011;70775;50.846;3.224;2023-07-13T02:36:04;14.20;;;4.10;;
81306;SDS011;70775;50.846;3.224;2023-07-13T02:38:31;13.63;;;4.70;;
81306;SDS011;70775;50.846;3.224;2023-07-13T02:40:59;12.20;;;3.92;;
81306;SDS011;70775;50.846;3.224;2023-07-13T02:43:25;13.52;;;4.05;;
81306;SDS011;70775;50.846;3.224;2023-07-13T02:45:51;12.07;;;3.85;;
81306;SDS011;70775;50.846;3.224;2023-07-13T02:48:16;17.75;;;4.63;;
81306;SDS011;70775;50.846;3.224;2023-07-13T02:50:43;11.82;;;4.10;;
81306;SDS011;70775;50.846;3.224;2023-07-13T02:53:10;16.30;;;4.20;;
81306;SDS011;70775;50.846;3.224;2023-07-13T02:55:36;17.98;;;4.93;;
81306;SDS011;70775;50.846;3.224;2023-07-13T02:58:01;12.45;;;3.97;;
81306;SDS011;70775;50.846;3.224;2023-07-13T03:00:27;14.13;;;5.25;;
81306;SDS011;70775;50.846;3.224;2023-07-13T03:02:54;13.23;;;3.97;;
81306;SDS011;70775;50.846;3.224;2023-07-13T03:05:22;12.10;;;4.22;;
81306;SDS011;70775;50.846;3.224;2023-07-13T03:07:48;13.75;;;3.92;;
81306;SDS011;70775;50.846;3.224;2023-07-13T03:10:14;16.35;;;3.90;;
81306;SDS011;70775;50.846;3.224;2023-07-13T03:12:42;14.15;;;4.43;;
81306;SDS011;70775;50.846;3.224;2023-07-13T03:15:07;18.90;;;4.68;;
81306;SDS011;70775;50.846;3.224;2023-07-13T03:17:33;16.67;;;4.20;;
81306;SDS011;70775;50.846;3.224;2023-07-13T03:19:59;17.73;;;4.25;;
81306;SDS011;70775;50.846;3.224;2023-07-13T03:22:24;16.35;;;4.10;;
81306;SDS011;70775;50.846;3.224;2023-07-13T03:24:50;14.30;;;4.15;;
81306;SDS011;70775;50.846;3.224;2023-07-13T03:27:16;13.75;;;4.68;;
81306;SDS011;70775;50.846;3.224;2023-07-13T03:29:42;15.07;;;4.18;;
81306;SDS011;70775;50.846;3.224;2023-07-13T03:32:08;15.00;;;4.53;;
81306;SDS011;70775;50.846;3.224;2023-07-13T03:34:34;12.50;;;4.10;;
81306;SDS011;70775;50.846;3.224;2023-07-13T03:37:00;12.52;;;3.83;;
81306;SDS011;70775;50.846;3.224;2023-07-13T03:39:25;18.73;;;4.97;;
81306;SDS011;70775;50.846;3.224;2023-07-13T03:41:51;24.23;;;4.78;;
81306;SDS011;70775;50.846;3.224;2023-07-13T03:44:17;14.23;;;4.35;;
81306;SDS011;70775;50.846;3.224;2023-07-13T03:46:43;8.60;;;3.50;;
81306;SDS011;70775;50.846;3.224;2023-07-13T03:49:09;12.82;;;4.03;;
81306;SDS011;70775;50.846;3.224;2023-07-13T03:51:35;13.18;;;4.18;;
81306;SDS011;70775;50.846;3.224;2023-07-13T03:54:07;13.35;;;4.07;;
81306;SDS011;70775;50.846;3.224;2023-07-13T03:56:33;15.57;;;4.57;;
81306;SDS011;70775;50.846;3.224;2023-07-13T03:58:58;13.82;;;4.28;;
81306;SDS011;70775;50.846;3.224;2023-07-13T04:01:25;16.13;;;4.25;;
81306;SDS011;70775;50.846;3.224;2023-07-13T04:03:52;15.40;;;4.45;;
81306;SDS011;70775;50.846;3.224;2023-07-13T04:06:19;14.93;;;3.88;;
81306;SDS011;70775;50.846;3.224;2023-07-13T04:08:50;15.73;;;4.90;;
81306;SDS011;70775;50.846;3.224;2023-07-13T04:11:20;15.73;;;5.07;;
81306;SDS011;70775;50.846;3.224;2023-07-13T04:13:47;13.60;;;3.55;;
81306;SDS011;70775;50.846;3.224;2023-07-13T04:16:13;14.25;;;5.32;;
81306;SDS011;70775;50.846;3.224;2023-07-13T04:18:39;12.50;;;4.13;;
81306;SDS011;70775;50.846;3.224;2023-07-13T04:21:07;11.88;;;4.30;;
81306;SDS011;70775;50.846;3.224;2023-07-13T04:23:35;17.75;;;4.68;;
81306;SDS011;70775;50.846;3.224;2023-07-13T04:26:01;14.95;;;4.03;;
81306;SDS011;70775;50.846;3.224;2023-07-13T04:28:27;16.40;;;3.97;;
81306;SDS011;70775;50.846;3.224;2023-07-13T04:30:53;13.63;;;4.35;;
81306;SDS011;70775;50.846;3.224;2023-07-13T04:33:19;13.40;;;4.25;;
81306;SDS011;70775;50.846;3.224;2023-07-13T04:35:51;10.30;;;4.07;;
81306;SDS011;70775;50.846;3.224;2023-07-13T04:38:28;16.40;;;4.18;;
81306;SDS011;70775;50.846;3.224;2023-07-13T04:40:55;14.35;;;4.45;;
81306;SDS011;70775;50.846;3.224;2023-07-13T04:43:23;13.02;;;5.00;;
81306;SDS011;70775;50.846;3.224;2023-07-13T04:45:51;13.43;;;4.47;;
81306;SDS011;70775;50.846;3.224;2023-07-13T04:48:18;12.02;;;4.07;;
81306;SDS011;70775;50.846;3.224;2023-07-13T04:50:44;17.70;;;3.83;;
81306;SDS011;70775;50.846;3.224;2023-07-13T04:53:11;12.05;;;3.75;;
81306;SDS011;70775;50.846;3.224;2023-07-13T04:55:37;15.57;;;4.57;;
81306;SDS011;70775;50.846;3.224;2023-07-13T05:00:34;11.70;;;4.38;;
81306;SDS011;70775;50.846;3.224;2023-07-13T05:02:59;18.48;;;4.60;;
81306;SDS011;70775;50.846;3.224;2023-07-13T05:05:25;16.02;;;4.80;;
81306;SDS011;70775;50.846;3.224;2023-07-13T05:07:52;13.13;;;4.57;;
81306;SDS011;70775;50.846;3.224;2023-07-13T05:10:18;14.23;;;4.20;;
81306;SDS011;70775;50.846;3.224;2023-07-13T05:12:48;14.05;;;4.00;;
81306;SDS011;70775;50.846;3.224;2023-07-13T05:15:14;14.07;;;3.90;;
81306;SDS011;70775;50.846;3.224;2023-07-13T05:17:40;14.55;;;4.38;;
81306;SDS011;70775;50.846;3.224;2023-07-13T05:20:07;13.45;;;4.40;;
81306;SDS011;70775;50.846;3.224;2023-07-13T05:22:33;13.07;;;4.38;;
81306;SDS011;70775;50.846;3.224;2023-07-13T05:25:00;11.93;;;3.67;;
81306;SDS011;70775;50.846;3.224;2023-07-13T05:27:27;13.63;;;4.38;;
81306;SDS011;70775;50.846;3.224;2023-07-13T05:29:52;10.68;;;3.70;;
81306;SDS011;70775;50.846;3.224;2023-07-13T05:32:18;14.13;;;4.68;;
81306;SDS011;70775;50.846;3.224;2023-07-13T05:34:44;13.75;;;4.22;;
81306;SDS011;70775;50.846;3.224;2023-07-13T05:37:10;13.65;;;4.22;;
81306;SDS011;70775;50.846;3.224;2023-07-13T05:42:25;14.50;;;4.80;;
81306;SDS011;70775;50.846;3.224;2023-07-13T05:44:51;10.90;;;3.70;;
81306;SDS011;70775;50.846;3.224;2023-07-13T05:47:16;12.68;;;4.72;;
81306;SDS011;70775;50.846;3.224;2023-07-13T05:49:44;11.05;;;3.83;;
81306;SDS011;70775;50.846;3.224;2023-07-13T05:52:10;17.17;;;4.47;;
81306;SDS011;70775;50.846;3.224;2023-07-13T05:54:42;13.18;;;4.88;;
81306;SDS011;70775;50.846;3.224;2023-07-13T05:57:08;13.45;;;4.18;;
81306;SDS011;70775;50.846;3.224;2023-07-13T05:59:33;11.93;;;4.55;;
81306;SDS011;70775;50.846;3.224;2023-07-13T06:02:00;12.65;;;4.13;;
81306;SDS011;70775;50.846;3.224;2023-07-13T06:04:25;12.20;;;4.20;;
81306;SDS011;70775;50.846;3.224;2023-07-13T06:06:51;10.57;;;4.70;;
81306;SDS011;70775;50.846;3.224;2023-07-13T06:09:17;14.02;;;3.90;;
81306;SDS011;70775;50.846;3.224;2023-07-13T06:11:45;11.02;;;4.75;;
81306;SDS011;70775;50.846;3.224;2023-07-13T06:14:12;13.20;;;3.88;;
81306;SDS011;70775;50.846;3.224;2023-07-13T06:16:39;9.23;;;3.72;;
81306;SDS011;70775;50.846;3.224;2023-07-13T06:19:06;14.95;;;5.13;;
81306;SDS011;70775;50.846;3.224;2023-07-13T06:21:32;15.90;;;4.22;;
81306;SDS011;70775;50.846;3.224;2023-07-13T06:23:57;14.23;;;4.75;;
81306;SDS011;70775;50.846;3.224;2023-07-13T06:26:23;17.40;;;4.50;;
81306;SDS011;70775;50.846;3.224;2023-07-13T06:28:49;14.45;;;4.32;;
81306;SDS011;70775;50.846;3.224;2023-07-13T06:31:15;15.70;;;4.10;;
81306;SDS011;70775;50.846;3.224;2023-07-13T06:33:40;13.75;;;5.32;;
81306;SDS011;70775;50.846;3.224;2023-07-13T06:36:06;13.52;;;3.95;;
81306;SDS011;70775;50.846;3.224;2023-07-13T06:38:34;9.70;;;3.53;;
81306;SDS011;70775;50.846;3.224;2023-07-13T06:41:00;18.45;;;4.72;;
81306;SDS011;70775;50.846;3.224;2023-07-13T06:43:27;19.50;;;4.85;;
81306;SDS011;70775;50.846;3.224;2023-07-13T06:45:54;11.32;;;4.43;;
81306;SDS011;70775;50.846;3.224;2023-07-13T06:48:20;14.93;;;4.07;;
81306;SDS011;70775;50.846;3.224;2023-07-13T06:50:48;12.68;;;4.28;;
81306;SDS011;70775;50.846;3.224;2023-07-13T06:53:18;16.38;;;3.97;;
81306;SDS011;70775;50.846;3.224;2023-07-13T06:55:45;9.15;;;3.90;;
81306;SDS011;70775;50.846;3.224;2023-07-13T06:58:11;15.82;;;4.80;;
81306;SDS011;70775;50.846;3.224;2023-07-13T07:00:38;18.13;;;4.30;;
81306;SDS011;70775;50.846;3.224;2023-07-13T07:03:06;11.45;;;4.28;;
81306;SDS011;70775;50.846;3.224;2023-07-13T07:05:32;11.20;;;4.38;;
81306;SDS011;70775;50.846;3.224;2023-07-13T07:07:58;9.90;;;4.43;;
81306;SDS011;70775;50.846;3.224;2023-07-13T07:10:24;13.40;;;4.85;;
81306;SDS011;70775;50.846;3.224;2023-07-13T07:12:50;13.77;;;3.90;;
81306;SDS011;70775;50.846;3.224;2023-07-13T07:15:16;14.13;;;4.13;;
81306;SDS011;70775;50.846;3.224;2023-07-13T07:17:43;15.95;;;3.92;;
81306;SDS011;70775;50.846;3.224;2023-07-13T07:20:08;9.00;;;3.10;;
81306;SDS011;70775;50.846;3.224;2023-07-13T07:22:35;12.32;;;4.03;;
81306;SDS011;70775;50.846;3.224;2023-07-13T07:25:00;12.00;;;3.97;;
81306;SDS011;70775;50.846;3.224;2023-07-13T07:27:26;14.15;;;4.13;;
81306;SDS011;70775;50.846;3.224;2023-07-13T07:29:52;17.33;;;4.47;;
81306;SDS011;70775;50.846;3.224;2023-07-13T07:32:18;10.32;;;3.88;;
81306;SDS011;70775;50.846;3.224;2023-07-13T07:34:44;16.80;;;4.65;;
81306;SDS011;70775;50.846;3.224;2023-07-13T07:37:11;15.02;;;3.88;;
81306;SDS011;70775;50.846;3.224;2023-07-13T07:39:37;16.98;;;4.57;;
81306;SDS011;70775;50.846;3.224;2023-07-13T07:42:03;17.40;;;4.95;;
81306;SDS011;70775;50.846;3.224;2023-07-13T07:44:32;12.38;;;3.95;;
81306;SDS011;70775;50.846;3.224;2023-07-13T07:49:28;8.18;;;3.05;;
81306;SDS011;70775;50.846;3.224;2023-07-13T07:51:54;13.77;;;3.55;;
81306;SDS011;70775;50.846;3.224;2023-07-13T07:54:19;13.73;;;4.10;;
81306;SDS011;70775;50.846;3.224;2023-07-13T07:56:45;12.52;;;3.58;;
81306;SDS011;70775;50.846;3.224;2023-07-13T07:59:10;17.17;;;4.10;;
81306;SDS011;70775;50.846;3.224;2023-07-13T08:01:36;9.90;;;3.50;;
81306;SDS011;70775;50.846;3.224;2023-07-13T08:04:02;11.95;;;3.45;;
81306;SDS011;70775;50.846;3.224;2023-07-13T08:06:28;8.60;;;2.80;;
81306;SDS011;70775;50.846;3.224;2023-07-13T08:08:53;12.70;;;3.35;;
81306;SDS011;70775;50.846;3.224;2023-07-13T08:11:20;17.13;;;3.65;;
81306;SDS011;70775;50.846;3.224;2023-07-13T08:13:46;12.18;;;3.65;;
81306;SDS011;70775;50.846;3.224;2023-07-13T08:16:12;11.23;;;3.15;;
81306;SDS011;70775;50.846;3.224;2023-07-13T08:18:37;10.30;;;3.67;;
81306;SDS011;70775;50.846;3.224;2023-07-13T08:21:06;9.48;;;4.00;;
81306;SDS011;70775;50.846;3.224;2023-07-13T08:23:33;8.90;;;3.50;;
81306;SDS011;70775;50.846;3.224;2023-07-13T08:26:00;12.07;;;3.95;;
81306;SDS011;70775;50.846;3.224;2023-07-13T08:28:26;8.60;;;3.67;;
81306;SDS011;70775;50.846;3.224;2023-07-13T08:30:52;7.07;;;3.38;;
81306;SDS011;70775;50.846;3.224;2023-07-13T08:33:19;5.78;;;3.33;;
81306;SDS011;70775;50.846;3.224;2023-07-13T08:35:46;9.43;;;3.55;;
81306;SDS011;70775;50.846;3.224;2023-07-13T08:38:16;13.15;;;3.92;;
81306;SDS011;70775;50.846;3.224;2023-07-13T08:40:42;12.70;;;3.38;;
81306;SDS011;70775;50.846;3.224;2023-07-13T08:43:15;9.90;;;3.53;;
81306;SDS011;70775;50.846;3.224;2023-07-13T08:45:57;8.30;;;3.33;;
81306;SDS011;70775;50.846;3.224;2023-07-13T08:48:47;11.43;;;3.20;;
81306;SDS011;70775;50.846;3.224;2023-07-13T08:54:15;8.27;;;2.88;;
81306;SDS011;70775;50.846;3.224;2023-07-13T08:56:46;8.75;;;2.90;;
81306;SDS011;70775;50.846;3.224;2023-07-13T08:59:15;7.93;;;3.08;;
81306;SDS011;70775;50.846;3.224;2023-07-13T09:04:16;6.28;;;2.97;;
81306;SDS011;70775;50.846;3.224;2023-07-13T09:07:01;10.18;;;3.13;;
81306;SDS011;70775;50.846;3.224;2023-07-13T09:12:17;6.55;;;3.05;;
81306;SDS011;70775;50.846;3.224;2023-07-13T09:14:45;12.75;;;3.20;;
81306;SDS011;70775;50.846;3.224;2023-07-13T09:17:16;6.97;;;3.17;;
81306;SDS011;70775;50.846;3.224;2023-07-13T09:19:45;9.02;;;3.30;;
81306;SDS011;70775;50.846;3.224;2023-07-13T09:22:17;11.48;;;3.35;;
81306;SDS011;70775;50.846;3.224;2023-07-13T09:24:53;7.95;;;2.65;;
81306;SDS011;70775;50.846;3.224;2023-07-13T09:27:27;7.30;;;2.70;;
81306;SDS011;70775;50.846;3.224;2023-07-13T09:32:49;6.40;;;2.58;;
81306;SDS011;70775;50.846;3.224;2023-07-13T09:35:18;8.82;;;2.63;;
81306;SDS011;70775;50.846;3.224;2023-07-13T09:37:46;7.80;;;2.65;;
81306;SDS011;70775;50.846;3.224;2023-07-13T09:40:23;9.18;;;2.50;;
81306;SDS011;70775;50.846;3.224;2023-07-13T09:43:05;10.30;;;2.88;;
81306;SDS011;70775;50.846;3.224;2023-07-13T09:45:35;7.82;;;3.08;;
81306;SDS011;70775;50.846;3.224;2023-07-13T09:48:20;7.47;;;2.75;;
81306;SDS011;70775;50.846;3.224;2023-07-13T09:50:47;8.88;;;2.95;;
81306;SDS011;70775;50.846;3.224;2023-07-13T09:53:17;8.88;;;2.55;;
81306;SDS011;70775;50.846;3.224;2023-07-13T09:55:45;3.95;;;1.70;;
81306;SDS011;70775;50.846;3.224;2023-07-13T10:00:39;10.90;;;2.65;;
81306;SDS011;70775;50.846;3.224;2023-07-13T10:03:13;7.95;;;2.63;;
81306;SDS011;70775;50.846;3.224;2023-07-13T10:05:47;6.70;;;2.58;;
81306;SDS011;70775;50.846;3.224;2023-07-13T10:08:23;7.13;;;2.25;;
81306;SDS011;70775;50.846;3.224;2023-07-13T10:11:00;5.90;;;2.08;;
81306;SDS011;70775;50.846;3.224;2023-07-13T10:13:34;6.93;;;2.20;;
81306;SDS011;70775;50.846;3.224;2023-07-13T10:16:04;5.45;;;2.35;;
81306;SDS011;70775;50.846;3.224;2023-07-13T10:18:33;6.20;;;2.17;;
81306;SDS011;70775;50.846;3.224;2023-07-13T10:21:18;7.05;;;2.55;;
81306;SDS011;70775;50.846;3.224;2023-07-13T10:23:53;4.07;;;2.00;;
81306;SDS011;70775;50.846;3.224;2023-07-13T10:26:26;9.13;;;2.38;;
81306;SDS011;70775;50.846;3.224;2023-07-13T10:28:57;4.22;;;2.40;;
81306;SDS011;70775;50.846;3.224;2023-07-13T10:31:26;5.10;;;2.15;;
81306;SDS011;70775;50.846;3.224;2023-07-13T10:33:52;3.97;;;2.30;;
81306;SDS011;70775;50.846;3.224;2023-07-13T10:36:28;5.03;;;2.63;;
81306;SDS011;70775;50.846;3.224;2023-07-13T10:38:59;8.10;;;3.03;;
81306;SDS011;70775;50.846;3.224;2023-07-13T10:41:29;6.65;;;2.60;;
81306;SDS011;70775;50.846;3.224;2023-07-13T10:43:58;5.35;;;2.58;;
81306;SDS011;70775;50.846;3.224;2023-07-13T10:46:26;4.03;;;2.22;;
81306;SDS011;70775;50.846;3.224;2023-07-13T10:49:02;6.85;;;2.50;;
81306;SDS011;70775;50.846;3.224;2023-07-13T10:51:32;6.80;;;2.47;;
81306;SDS011;70775;50.846;3.224;2023-07-13T10:56:48;4.60;;;2.33;;
81306;SDS011;70775;50.846;3.224;2023-07-13T10:59:16;5.80;;;2.78;;
81306;SDS011;70775;50.846;3.224;2023-07-13T11:04:44;8.23;;;3.08;;
81306;SDS011;70775;50.846;3.224;2023-07-13T11:07:20;6.55;;;2.42;;
81306;SDS011;70775;50.846;3.224;2023-07-13T11:09:49;5.35;;;2.75;;
81306;SDS011;70775;50.846;3.224;2023-07-13T11:22:48;7.30;;;3.15;;
81306;SDS011;70775;50.846;3.224;2023-07-13T11:27:45;6.15;;;2.78;;
81306;SDS011;70775;50.846;3.224;2023-07-13T11:33:01;6.53;;;2.40;;
81306;SDS011;70775;50.846;3.224;2023-07-13T11:35:33;7.32;;;2.10;;
81306;SDS011;70775;50.846;3.224;2023-07-13T11:38:01;5.38;;;2.58;;
81306;SDS011;70775;50.846;3.224;2023-07-13T11:40:30;2.97;;;1.70;;
81306;SDS011;70775;50.846;3.224;2023-07-13T11:43:02;5.15;;;2.03;;
81306;SDS011;70775;50.846;3.224;2023-07-13T11:45:32;3.95;;;1.60;;
81306;SDS011;70775;50.846;3.224;2023-07-13T11:47:58;5.18;;;1.80;;
81306;SDS011;70775;50.846;3.224;2023-07-13T11:50:25;4.78;;;1.73;;
81306;SDS011;70775;50.846;3.224;2023-07-13T11:52:53;4.50;;;1.67;;
81306;SDS011;70775;50.846;3.224;2023-07-13T11:55:21;4.80;;;1.70;;
81306;SDS011;70775;50.846;3.224;2023-07-13T11:57:50;3.80;;;1.77;;
81306;SDS011;70775;50.846;3.224;2023-07-13T12:00:21;3.90;;;1.80;;
81306;SDS011;70775;50.846;3.224;2023-07-13T12:02:50;4.57;;;1.65;;
81306;SDS011;70775;50.846;3.224;2023-07-13T12:05:18;3.72;;;1.70;;
81306;SDS011;70775;50.846;3.224;2023-07-13T12:07:49;4.20;;;1.60;;
81306;SDS011;70775;50.846;3.224;2023-07-13T12:12:47;4.72;;;1.98;;
81306;SDS011;70775;50.846;3.224;2023-07-13T12:15:18;2.15;;;1.30;;
81306;SDS011;70775;50.846;3.224;2023-07-13T12:17:44;2.97;;;1.77;;
81306;SDS011;70775;50.846;3.224;2023-07-13T12:20:18;5.25;;;1.70;;
81306;SDS011;70775;50.846;3.224;2023-07-13T12:23:00;2.15;;;1.30;;
81306;SDS011;70775;50.846;3.224;2023-07-13T12:25:28;4.30;;;1.73;;
81306;SDS011;70775;50.846;3.224;2023-07-13T12:27:55;3.53;;;1.73;;
81306;SDS011;70775;50.846;3.224;2023-07-13T12:30:30;3.10;;;1.55;;
81306;SDS011;70775;50.846;3.224;2023-07-13T12:35:40;3.25;;;1.40;;
81306;SDS011;70775;50.846;3.224;2023-07-13T12:38:10;2.25;;;1.45;;
81306;SDS011;70775;50.846;3.224;2023-07-13T12:40:36;3.35;;;1.30;;
81306;SDS011;70775;50.846;3.224;2023-07-13T12:43:03;2.30;;;1.48;;
81306;SDS011;70775;50.846;3.224;2023-07-13T12:45:31;3.85;;;1.50;;
81306;SDS011;70775;50.846;3.224;2023-07-13T12:48:03;2.97;;;1.60;;
81306;SDS011;70775;50.846;3.224;2023-07-13T12:50:40;5.93;;;2.08;;
81306;SDS011;70775;50.846;3.224;2023-07-13T12:53:13;2.72;;;1.23;;
81306;SDS011;70775;50.846;3.224;2023-07-13T12:55:51;5.68;;;1.70;;
81306;SDS011;70775;50.846;3.224;2023-07-13T13:00:53;4.90;;;1.50;;
81306;SDS011;70775;50.846;3.224;2023-07-13T13:03:27;4.28;;;1.50;;
81306;SDS011;70775;50.846;3.224;2023-07-13T13:06:02;4.22;;;1.30;;
81306;SDS011;70775;50.846;3.224;2023-07-13T13:08:32;3.67;;;1.50;;
81306;SDS011;70775;50.846;3.224;2023-07-13T13:13:28;4.47;;;1.40;;
81306;SDS011;70775;50.846;3.224;2023-07-13T13:15:54;5.07;;;1.42;;
81306;SDS011;70775;50.846;3.224;2023-07-13T13:18:21;5.20;;;1.88;;
81306;SDS011;70775;50.846;3.224;2023-07-13T13:20:49;5.57;;;1.48;;
81306;SDS011;70775;50.846;3.224;2023-07-13T13:23:19;5.70;;;2.28;;
81306;SDS011;70775;50.846;3.224;2023-07-13T13:25:49;4.25;;;1.70;;
81306;SDS011;70775;50.846;3.224;2023-07-13T13:28:17;3.75;;;1.73;;
81306;SDS011;70775;50.846;3.224;2023-07-13T13:30:46;3.47;;;1.60;;
81306;SDS011;70775;50.846;3.224;2023-07-13T13:33:15;3.45;;;1.42;;
81306;SDS011;70775;50.846;3.224;2023-07-13T13:35:42;4.63;;;1.77;;
81306;SDS011;70775;50.846;3.224;2023-07-13T13:38:12;2.30;;;1.30;;
81306;SDS011;70775;50.846;3.224;2023-07-13T13:40:41;3.25;;;1.50;;
81306;SDS011;70775;50.846;3.224;2023-07-13T13:43:15;3.72;;;1.40;;
81306;SDS011;70775;50.846;3.224;2023-07-13T13:45:51;5.13;;;1.70;;
81306;SDS011;70775;50.846;3.224;2023-07-13T13:48:18;3.17;;;1.25;;
81306;SDS011;70775;50.846;3.224;2023-07-13T13:50:55;6.28;;;1.88;;
81306;SDS011;70775;50.846;3.224;2023-07-13T13:53:21;3.90;;;1.27;;
81306;SDS011;70775;50.846;3.224;2023-07-13T13:55:48;3.75;;;1.60;;
81306;SDS011;70775;50.846;3.224;2023-07-13T13:58:14;3.20;;;1.58;;
81306;SDS011;70775;50.846;3.224;2023-07-13T14:00:47;3.28;;;1.52;;
81306;SDS011;70775;50.846;3.224;2023-07-13T14:05:43;3.13;;;1.70;;
81306;SDS011;70775;50.846;3.224;2023-07-13T14:08:18;3.53;;;1.30;;
81306;SDS011;70775;50.846;3.224;2023-07-13T14:10:46;2.63;;;1.50;;
81306;SDS011;70775;50.846;3.224;2023-07-13T14:13:16;2.92;;;1.30;;
81306;SDS011;70775;50.846;3.224;2023-07-13T14:15:44;3.45;;;1.35;;
81306;SDS011;70775;50.846;3.224;2023-07-13T14:18:10;6.03;;;1.73;;
81306;SDS011;70775;50.846;3.224;2023-07-13T14:20:37;4.22;;;1.55;;
81306;SDS011;70775;50.846;3.224;2023-07-13T14:23:02;4.93;;;1.52;;
81306;SDS011;70775;50.846;3.224;2023-07-13T14:25:28;5.93;;;1.55;;
81306;SDS011;70775;50.846;3.224;2023-07-13T14:27:55;3.50;;;1.23;;
81306;SDS011;70775;50.846;3.224;2023-07-13T14:30:25;4.38;;;1.23;;
81306;SDS011;70775;50.846;3.224;2023-07-13T14:32:51;4.28;;;1.40;;
81306;SDS011;70775;50.846;3.224;2023-07-13T14:35:17;3.08;;;1.42;;
81306;SDS011;70775;50.846;3.224;2023-07-13T14:37:46;3.03;;;1.40;;
81306;SDS011;70775;50.846;3.224;2023-07-13T14:42:39;3.15;;;1.50;;
81306;SDS011;70775;50.846;3.224;2023-07-13T14:45:05;3.40;;;1.70;;
81306;SDS011;70775;50.846;3.224;2023-07-13T14:47:38;4.55;;;1.55;;
81306;SDS011;70775;50.846;3.224;2023-07-13T14:50:04;4.43;;;1.60;;
81306;SDS011;70775;50.846;3.224;2023-07-13T14:52:32;6.45;;;1.95;;
81306;SDS011;70775;50.846;3.224;2023-07-13T14:54:58;2.97;;;1.50;;
81306;SDS011;70775;50.846;3.224;2023-07-13T14:57:23;2.63;;;1.30;;
81306;SDS011;70775;50.846;3.224;2023-07-13T14:59:49;3.85;;;1.38;;
81306;SDS011;70775;50.846;3.224;2023-07-13T15:02:27;3.03;;;1.60;;
81306;SDS011;70775;50.846;3.224;2023-07-13T15:04:55;3.15;;;1.52;;
81306;SDS011;70775;50.846;3.224;2023-07-13T15:07:21;2.42;;;1.20;;
81306;SDS011;70775;50.846;3.224;2023-07-13T15:09:48;3.20;;;1.55;;
81306;SDS011;70775;50.846;3.224;2023-07-13T15:12:14;2.42;;;1.27;;
81306;SDS011;70775;50.846;3.224;2023-07-13T15:14:39;1.85;;;1.13;;
81306;SDS011;70775;50.846;3.224;2023-07-13T15:17:08;3.60;;;1.58;;
81306;SDS011;70775;50.846;3.224;2023-07-13T15:19:59;4.22;;;1.50;;
81306;SDS011;70775;50.846;3.224;2023-07-13T15:22:24;4.75;;;1.92;;
81306;SDS011;70775;50.846;3.224;2023-07-13T15:24:50;4.32;;;1.52;;
81306;SDS011;70775;50.846;3.224;2023-07-13T15:27:16;3.58;;;1.40;;
81306;SDS011;70775;50.846;3.224;2023-07-13T15:29:42;2.95;;;1.40;;
81306;SDS011;70775;50.846;3.224;2023-07-13T15:32:15;3.17;;;1.35;;
81306;SDS011;70775;50.846;3.224;2023-07-13T15:34:41;3.60;;;1.50;;
81306;SDS011;70775;50.846;3.224;2023-07-13T15:37:14;5.55;;;1.58;;
81306;SDS011;70775;50.846;3.224;2023-07-13T15:39:41;2.15;;;1.40;;
81306;SDS011;70775;50.846;3.224;2023-07-13T15:42:15;2.28;;;1.40;;
81306;SDS011;70775;50.846;3.224;2023-07-13T15:44:41;3.70;;;1.60;;
81306;SDS011;70775;50.846;3.224;2023-07-13T15:47:11;2.58;;;1.30;;